Otagawa — JD3046 — position and weather

sailwx.info

Track history (hours):
 
Tides and Currents Weather Stations Pressure Air Temp Water Temp Dewpoint Dewpoint Depression Visibility Wind Speed Wind Dir Waves Ship Positions

Otagawa

Last reported at 2017-Mar-29 10:11 UTC. Time now 2017-Mar-30 11:03 UTC.
Position N 35°03' E 139°44'.

Length 70 m; draft 4 m.

Type: Ship. MMSI: 431001328.

Date/timePositionNaut miles runAvg speedWind from/ knotsBaromVisibWave heightAir tempDewpointWater temp
2017-Mar-29 10:11N 35°03' E 139°44'710.7
2017-Mar-29 09:30N 35°10' E 139°46'910.1
2017-Mar-29 08:33N 35°19' E 139°43'5 5.2
2017-Mar-29 07:33N 35°24' E 139°41'1 0.7
2017-Mar-29 06:33N 35°24' E 139°40'0 0.3
2017-Mar-29 05:32N 35°23' E 139°40'0 0.0
2017-Mar-29 04:32N 35°23' E 139°40'0 0.0
2017-Mar-29 03:32N 35°23' E 139°40'0 0.0
2017-Mar-29 02:32N 35°23' E 139°40'0 0.0
2017-Mar-29 01:32N 35°23' E 139°40'0 0.0
2017-Mar-29 00:32N 35°23' E 139°40'1 1.5
2017-Mar-28 23:34N 35°24' E 139°42'5 4.9
2017-Mar-28 22:31N 35°29' E 139°39'0 0.0
2017-Mar-28 21:31N 35°29' E 139°39'0 0.0
2017-Mar-28 20:31N 35°29' E 139°39'0 0.0
2017-Mar-28 19:31N 35°29' E 139°39'0 0.0
2017-Mar-28 18:31N 35°29' E 139°39'0 0.0
2017-Mar-28 17:31N 35°29' E 139°39'0 0.0
2017-Mar-28 16:31N 35°29' E 139°39'0 0.0
2017-Mar-28 15:31N 35°29' E 139°39'0 0.0
2017-Mar-28 14:31N 35°29' E 139°39'0 0.0
2017-Mar-28 13:31N 35°29' E 139°39'0 0.0
2017-Mar-28 12:31N 35°29' E 139°39'0 0.0
2017-Mar-28 11:31N 35°29' E 139°39'0 0.0
2017-Mar-28 10:31N 35°29' E 139°39'0 0.0
2017-Mar-28 09:31N 35°29' E 139°39'0 0.0
2017-Mar-28 08:31N 35°29' E 139°39'0 0.0
2017-Mar-28 07:31N 35°29' E 139°39'0 0.0
2017-Mar-28 06:31N 35°29' E 139°39'0 0.0
2017-Mar-28 05:31N 35°29' E 139°39'0 0.0
2017-Mar-28 04:31N 35°29' E 139°39'0 0.0
2017-Mar-28 03:31N 35°29' E 139°39'0 0.0
2017-Mar-28 02:31N 35°29' E 139°39'0 0.0
2017-Mar-28 01:31N 35°29' E 139°39'0 0.0
2017-Mar-28 00:31N 35°29' E 139°39'0 0.0
2017-Mar-27 23:33N 35°29' E 139°39'3 2.8
2017-Mar-27 22:34N 35°27' E 139°42'1 0.7
2017-Mar-27 21:32N 35°27' E 139°42'0 0.0
2017-Mar-27 20:32N 35°27' E 139°42'0 0.0
2017-Mar-27 19:32N 35°27' E 139°42'0 0.0
2017-Mar-27 18:32N 35°27' E 139°42'0 0.1
2017-Mar-27 17:32N 35°27' E 139°42'0 0.0
2017-Mar-27 16:32N 35°27' E 139°42'0 0.0
2017-Mar-27 15:32N 35°27' E 139°42'0 0.0
2017-Mar-27 14:32N 35°27' E 139°42'0 0.1
2017-Mar-27 13:32N 35°27' E 139°42'0 0.0
2017-Mar-27 12:32N 35°27' E 139°42'0 0.0
2017-Mar-27 11:32N 35°27' E 139°42'0 0.1
2017-Mar-27 10:32N 35°27' E 139°42'0 0.0
2017-Mar-27 09:32N 35°27' E 139°42'0 0.1
2017-Mar-27 08:33N 35°27' E 139°42'1 0.6
2017-Mar-27 07:33N 35°28' E 139°42'0 0.0
2017-Mar-27 06:33N 35°28' E 139°42'0 0.0
2017-Mar-27 05:33N 35°28' E 139°42'3 2.5
2017-Mar-27 04:33N 35°26' E 139°44'9 9.1
2017-Mar-27 03:32N 35°17' E 139°45'  
2017-Mar-22 03:16N 34°58' E 139°44'810.7
2017-Mar-22 02:33N 35°06' E 139°45'1111.1
2017-Mar-22 01:33N 35°17' E 139°45'1010.6
2017-Mar-22 00:33N 35°27' E 139°43'1 1.1
2017-Mar-21 23:33N 35°28' E 139°42'0 0.3
2017-Mar-21 22:33N 35°28' E 139°42'1 0.8
2017-Mar-21 21:33N 35°27' E 139°42'0 0.0
2017-Mar-21 20:33N 35°27' E 139°42'0 0.0
2017-Mar-21 19:33N 35°27' E 139°42'0 0.0
2017-Mar-21 18:33N 35°27' E 139°42'3 3.1
2017-Mar-21 17:33N 35°24' E 139°42'1 0.7
2017-Mar-21 16:33N 35°24' E 139°41'0 0.0
2017-Mar-21 15:33N 35°24' E 139°41'0 0.0
2017-Mar-21 14:33N 35°24' E 139°41'1 1.1
2017-Mar-21 13:33N 35°23' E 139°40'0 0.1
2017-Mar-21 12:33N 35°23' E 139°40'0 0.0
2017-Mar-21 11:33N 35°23' E 139°40'0 0.0
2017-Mar-21 10:29N 35°23' E 139°40'0 0.0
2017-Mar-21 09:32N 35°23' E 139°40'0 0.0
2017-Mar-21 08:32N 35°23' E 139°40'0 0.1
2017-Mar-21 07:32N 35°23' E 139°40'0 0.0
2017-Mar-21 06:26N 35°23' E 139°40'0 0.0
2017-Mar-21 05:32N 35°23' E 139°40'0 0.0
2017-Mar-21 04:32N 35°23' E 139°40'0 0.0
2017-Mar-21 03:32N 35°23' E 139°40'3 3.0
2017-Mar-21 02:33N 35°21' E 139°42'10 9.6
2017-Mar-21 01:34N 35°12' E 139°47'1010.3
2017-Mar-21 00:33N 35°02' E 139°44'  
Track history (hours):
 
Tides and Currents Weather Stations Pressure Air Temp Water Temp Dewpoint Dewpoint Depression Visibility Wind Speed Wind Dir Waves Ship Positions

Otagawa

Last reported at 2017-Mar-29 10:11 UTC. Time now 2017-Mar-30 11:03 UTC.
Position N 35°03' E 139°44'.

Length 70 m; draft 4 m.

Type: Ship. MMSI: 431001328.

Date/timePositionNaut miles runAvg speedWind from/ knotsBaromVisibWave heightAir tempDewpointWater temp
2017-Mar-29 10:11N 35°03' E 139°44'710.7
2017-Mar-29 09:30N 35°10' E 139°46'910.1
2017-Mar-29 08:33N 35°19' E 139°43'5 5.2
2017-Mar-29 07:33N 35°24' E 139°41'1 0.7
2017-Mar-29 06:33N 35°24' E 139°40'0 0.3
2017-Mar-29 05:32N 35°23' E 139°40'0 0.0
2017-Mar-29 04:32N 35°23' E 139°40'0 0.0
2017-Mar-29 03:32N 35°23' E 139°40'0 0.0
2017-Mar-29 02:32N 35°23' E 139°40'0 0.0
2017-Mar-29 01:32N 35°23' E 139°40'0 0.0
2017-Mar-29 00:32N 35°23' E 139°40'1 1.5
2017-Mar-28 23:34N 35°24' E 139°42'5 4.9
2017-Mar-28 22:31N 35°29' E 139°39'0 0.0
2017-Mar-28 21:31N 35°29' E 139°39'0 0.0
2017-Mar-28 20:31N 35°29' E 139°39'0 0.0
2017-Mar-28 19:31N 35°29' E 139°39'0 0.0
2017-Mar-28 18:31N 35°29' E 139°39'0 0.0
2017-Mar-28 17:31N 35°29' E 139°39'0 0.0
2017-Mar-28 16:31N 35°29' E 139°39'0 0.0
2017-Mar-28 15:31N 35°29' E 139°39'0 0.0
2017-Mar-28 14:31N 35°29' E 139°39'0 0.0
2017-Mar-28 13:31N 35°29' E 139°39'0 0.0
2017-Mar-28 12:31N 35°29' E 139°39'0 0.0
2017-Mar-28 11:31N 35°29' E 139°39'0 0.0
2017-Mar-28 10:31N 35°29' E 139°39'0 0.0
2017-Mar-28 09:31N 35°29' E 139°39'0 0.0
2017-Mar-28 08:31N 35°29' E 139°39'0 0.0
2017-Mar-28 07:31N 35°29' E 139°39'0 0.0
2017-Mar-28 06:31N 35°29' E 139°39'0 0.0
2017-Mar-28 05:31N 35°29' E 139°39'0 0.0
2017-Mar-28 04:31N 35°29' E 139°39'0 0.0
2017-Mar-28 03:31N 35°29' E 139°39'0 0.0
2017-Mar-28 02:31N 35°29' E 139°39'0 0.0
2017-Mar-28 01:31N 35°29' E 139°39'0 0.0
2017-Mar-28 00:31N 35°29' E 139°39'0 0.0
2017-Mar-27 23:33N 35°29' E 139°39'3 2.8
2017-Mar-27 22:34N 35°27' E 139°42'1 0.7
2017-Mar-27 21:32N 35°27' E 139°42'0 0.0
2017-Mar-27 20:32N 35°27' E 139°42'0 0.0
2017-Mar-27 19:32N 35°27' E 139°42'0 0.0
2017-Mar-27 18:32N 35°27' E 139°42'0 0.1
2017-Mar-27 17:32N 35°27' E 139°42'0 0.0
2017-Mar-27 16:32N 35°27' E 139°42'0 0.0
2017-Mar-27 15:32N 35°27' E 139°42'0 0.0
2017-Mar-27 14:32N 35°27' E 139°42'0 0.1
2017-Mar-27 13:32N 35°27' E 139°42'0 0.0
2017-Mar-27 12:32N 35°27' E 139°42'0 0.0
2017-Mar-27 11:32N 35°27' E 139°42'0 0.1
2017-Mar-27 10:32N 35°27' E 139°42'0 0.0
2017-Mar-27 09:32N 35°27' E 139°42'0 0.1
2017-Mar-27 08:33N 35°27' E 139°42'1 0.6
2017-Mar-27 07:33N 35°28' E 139°42'0 0.0
2017-Mar-27 06:33N 35°28' E 139°42'0 0.0
2017-Mar-27 05:33N 35°28' E 139°42'3 2.5
2017-Mar-27 04:33N 35°26' E 139°44'9 9.1
2017-Mar-27 03:32N 35°17' E 139°45'  
2017-Mar-22 03:16N 34°58' E 139°44'810.7
2017-Mar-22 02:33N 35°06' E 139°45'1111.1
2017-Mar-22 01:33N 35°17' E 139°45'1010.6
2017-Mar-22 00:33N 35°27' E 139°43'1 1.1
2017-Mar-21 23:33N 35°28' E 139°42'0 0.3
2017-Mar-21 22:33N 35°28' E 139°42'1 0.8
2017-Mar-21 21:33N 35°27' E 139°42'0 0.0
2017-Mar-21 20:33N 35°27' E 139°42'0 0.0
2017-Mar-21 19:33N 35°27' E 139°42'0 0.0
2017-Mar-21 18:33N 35°27' E 139°42'3 3.1
2017-Mar-21 17:33N 35°24' E 139°42'1 0.7
2017-Mar-21 16:33N 35°24' E 139°41'0 0.0
2017-Mar-21 15:33N 35°24' E 139°41'0 0.0
2017-Mar-21 14:33N 35°24' E 139°41'1 1.1
2017-Mar-21 13:33N 35°23' E 139°40'0 0.1
2017-Mar-21 12:33N 35°23' E 139°40'0 0.0
2017-Mar-21 11:33N 35°23' E 139°40'0 0.0
2017-Mar-21 10:29N 35°23' E 139°40'0 0.0
2017-Mar-21 09:32N 35°23' E 139°40'0 0.0
2017-Mar-21 08:32N 35°23' E 139°40'0 0.1
2017-Mar-21 07:32N 35°23' E 139°40'0 0.0
2017-Mar-21 06:26N 35°23' E 139°40'0 0.0
2017-Mar-21 05:32N 35°23' E 139°40'0 0.0
2017-Mar-21 04:32N 35°23' E 139°40'0 0.0
2017-Mar-21 03:32N 35°23' E 139°40'3 3.0
2017-Mar-21 02:33N 35°21' E 139°42'10 9.6
2017-Mar-21 01:34N 35°12' E 139°47'1010.3
2017-Mar-21 00:33N 35°02' E 139°44'  

Dump ship's entire track history